Latest Weather Observations for Century Mine

IDQ60801

Issued at 1:02 pm EST Thursday 2 April 2015 (issued every 30 minutes, with the page automatically refreshed every 10 minutes)

About weather observations | Map of weather stations | Latest weather observations for QLD | Other Formats
Station Details ID: 029167 Name: CENTURY MINE Lat: -18.76 Lon: 138.71 Height: 126.8 m
Data from the previous 72 hours. | See also: Recent months at Century Mine
Date/Time
EST
Temp
°C
App
Temp
°C
Dew
Point
Rel
Hum
%
Delta-T
°C
Wind Press
QNH
hPa
Press
MSL
hPa
Rain
since 9 am
mm
Dir
 
Spd
km/h
Gust
km/h
Spd
kts
Gust
kts
02/01:00pm 37.4 36.0 12.1 22 15.3 ENE 11 22 6 12 1009.4 1008.6 0.0
02/12:30pm 37.4 36.6 12.8 23 15.1 NNE 9 17 5 9 1010.1 1009.3 0.0
02/12:00pm 36.6 34.8 12.1 23 14.8 ESE 13 20 7 11 1010.7 1010.0 0.0
02/11:30am 36.0 34.4 11.6 23 14.6 ESE 11 20 6 11 1011.1 1010.4 0.0
02/11:00am 35.4 33.8 11.7 23 14.2 ENE 11 19 6 10 1011.5 1010.8 0.0
02/10:30am 34.5 32.7 12.2 26 13.4 E 13 19 7 10 1011.9 1011.1 0.0
02/10:00am 34.0 32.1 12.9 28 12.8 E 15 20 8 11 1012.0 1011.2 0.0
02/09:30am 33.1 31.3 13.2 30 12.0 ESE 15 26 8 14 1011.9 1011.1 0.0
02/09:00am 32.1 31.6 16.8 40 9.7 ESE 15 22 8 12 1011.6 1010.9 0.0
02/08:30am 31.2 32.3 18.9 48 8.0 SE 11 22 6 12 1011.1 1010.4 0.0
02/08:00am 30.2 34.1 21.8 60 5.7 SSE 4 9 2 5 1010.9 1010.2 0.0
02/07:30am 28.4 32.2 22.4 70 4.1 S 6 7 3 4 1010.7 1010.0 0.0
02/07:00am 27.7 31.3 22.0 71 3.9 S 6 7 3 4 1010.4 1009.6 0.0
02/06:30am 27.9 31.2 21.9 70 4.0 SSE 7 9 4 5 1010.2 1009.4 0.0
02/06:00am 28.3 31.6 21.8 68 4.4 SSE 7 9 4 5 1009.9 1009.1 0.0
02/05:30am 28.7 33.4 22.0 67 4.5 CALM 0 0 0 0 1009.5 1008.7 0.0
02/05:00am 28.8 32.7 21.8 66 4.7 SE 4 7 2 4 1009.1 1008.3 0.0
02/04:30am 28.7 33.3 21.7 66 4.7 CALM 0 0 0 0 1008.9 1008.1 0.0
02/04:00am 28.8 33.3 21.6 65 4.9 CALM 0 0 0 0 1008.8 1008.0 0.0
02/03:30am 29.2 32.1 21.7 64 5.1 NNW 9 13 5 7 1008.7 1007.9 0.0
02/03:00am 29.1 31.6 21.8 64 4.9 NW 11 13 6 7 1008.9 1008.1 0.0
02/02:30am 29.3 31.9 22.0 64 4.9 NW 11 15 6 8 1009.1 1008.3 0.0
02/02:00am 29.6 32.3 22.1 64 5.1 NW 11 15 6 8 1009.5 1008.7 0.0
02/01:30am 29.7 32.3 21.9 63 5.3 NW 11 15 6 8 1009.8 1009.0 0.0
02/01:00am 30.0 32.9 21.7 61 5.6 NNW 9 15 5 8 1010.1 1009.3 0.0
02/12:30am 30.1 32.5 21.5 60 5.8 N 11 15 6 8 1010.4 1009.6 0.0
02/12:00am 30.3 32.6 21.4 59 6.0 N 11 15 6 8 1010.5 1009.7 0.0
 
Date/Time
EST
Temp
°C
App
Temp
°C
Dew
Point
Rel
Hum
%
Delta-T
°C
Wind Press
QNH
hPa
Press
MSL
hPa
Rain
since 9 am
mm
Dir
 
Spd
km/h
Gust
km/h
Spd
kts
Gust
kts
01/11:30pm 30.5 32.8 21.3 58 6.2 NNE 11 20 6 11 1010.5 1009.7 0.0
01/11:00pm 30.6 32.4 21.1 57 6.4 NNE 13 17 7 9 1010.8 1010.1 0.0
01/10:30pm 31.1 32.5 21.0 55 6.8 NNE 15 20 8 11 1010.9 1010.2 0.0
01/10:00pm 31.6 32.9 20.8 52 7.3 NNE 15 24 8 13 1011.0 1010.3 0.0
01/09:30pm 32.1 33.3 20.7 51 7.7 NE 15 24 8 13 1010.8 1010.1 0.0
01/09:00pm 32.8 32.9 20.0 47 8.5 NE 19 26 10 14 1010.2 1009.4 0.0
01/08:30pm 34.1 33.8 18.2 39 10.4 ENE 17 37 9 20 1009.5 1008.7 0.0
01/08:00pm 35.2 34.4 12.8 26 13.6 ESE 9 13 5 7 1008.7 1007.9 0.0
01/07:30pm 36.2 34.5 12.4 24 14.4 ESE 13 20 7 11 1008.7 1007.9 0.0
01/07:00pm 36.4 34.5 11.9 23 14.8 SE 13 17 7 9 1008.3 1007.5 0.0
01/06:30pm 37.2 36.1 11.9 22 15.3 SE 9 15 5 8 1007.8 1007.0 0.0
01/06:00pm 38.1 37.7 11.2 20 16.1 ENE 4 11 2 6 1007.5 1006.7 0.0
01/05:30pm 38.7 38.2 10.9 19 16.6 SSW 4 9 2 5 1007.4 1006.6 0.0
01/05:00pm 38.7 37.9 10.9 19 16.7 ENE 6 9 3 5 1007.3 1006.5 0.0
01/04:30pm 38.8 38.2 11.8 20 16.4 WNW 6 9 3 5 1007.3 1006.5 0.0
01/04:00pm 37.1 36.6 12.5 23 15.0 SW 7 11 4 6 1007.6 1006.8 0.0
01/03:30pm 37.5 37.0 12.2 22 15.3 WSW 6 11 3 6 1007.9 1007.1 0.0
01/03:00pm 38.1 37.1 13.3 22 15.3 NNE 11 17 6 9 1008.3 1007.5 0.0
01/02:30pm 39.0 37.8 12.7 21 16.1 E 11 20 6 11 1008.7 1007.9 0.0
01/02:00pm 38.3 37.5 12.8 22 15.7 SE 9 15 5 8 1009.4 1008.6 0.0
01/01:30pm 38.2 37.7 12.7 21 15.6 ESE 7 19 4 10 1009.9 1009.1 0.0
01/01:00pm 38.2 37.6 13.4 23 15.3 ENE 9 19 5 10 1010.4 1009.6 0.0
01/12:30pm 37.2 36.2 14.5 26 14.2 SE 13 24 7 13 1011.0 1010.3 0.0
01/12:00pm 36.0 35.6 14.1 27 13.6 NE 9 17 5 9 1011.6 1010.9 0.0
01/11:30am 35.7 35.0 14.4 28 13.2 ESE 11 17 6 9 1012.3 1011.5 0.0
01/11:00am 35.1 35.5 15.4 30 12.4 E 7 15 4 8 1012.7 1011.9 0.0
01/10:30am 34.1 33.8 15.5 32 11.7 ESE 11 19 6 10 1013.1 1012.3 0.0
01/10:00am 33.9 34.3 16.3 35 11.2 ESE 9 17 5 9 1013.2 1012.4 0.0
01/09:30am 32.8 32.3 15.8 36 10.7 ESE 13 20 7 11 1013.3 1012.4 0.0
01/09:00am 32.3 32.1 16.6 39 10.0 ESE 13 20 7 11 1013.1 1012.2 0.0
01/08:30am 31.6 31.9 16.0 39 9.8 SE 9 17 5 9 1013.0 1012.1 0.0
01/08:00am 30.3 33.0 17.7 46 8.1 CALM 0 0 0 0 1012.8 1011.9 0.0
01/07:30am 28.8 31.1 18.6 54 6.6 SW 4 7 2 4 1012.6 1011.7 0.0
01/07:00am 27.9 29.6 18.0 55 6.3 SSW 6 7 3 4 1012.2 1011.3 0.0
01/06:30am 28.2 29.9 18.0 54 6.5 SSW 6 7 3 4 1011.9 1011.0 0.0
01/06:00am 29.1 31.5 17.9 50 7.2 SSW 2 6 1 3 1011.8 1010.9 0.0
01/05:30am 29.9 31.5 18.3 49 7.5 SSE 7 11 4 6 1011.4 1010.6 0.0
01/05:00am 29.9 32.8 18.3 49 7.5 CALM 0 6 0 3 1011.2 1010.4 0.0
01/04:30am 30.2 31.4 18.3 49 7.7 ESE 9 15 5 8 1011.0 1010.2 0.0
01/04:00am 29.9 32.0 18.0 48 7.6 SSW 4 6 2 3 1010.6 1009.8 0.0
01/03:30am 30.0 31.7 18.1 49 7.7 WSW 6 9 3 5 1010.6 1009.8 0.0
01/03:00am 30.1 32.0 18.5 49 7.5 W 6 9 3 5 1010.9 1010.1 0.0
01/02:30am 30.1 31.8 18.5 49 7.5 SSW 7 11 4 6 1011.2 1010.4 0.0
01/02:00am 30.5 32.3 18.2 47 7.9 N 6 9 3 5 1011.3 1010.5 0.0
01/01:30am 30.7 33.0 17.7 45 8.3 SE 2 6 1 3 1011.8 1010.9 0.0
01/01:00am 31.3 33.2 19.0 48 8.0 ESE 7 11 4 6 1012.4 1011.5 0.0
01/12:30am 31.4 33.0 19.1 48 8.1 SW 9 15 5 8 1012.7 1011.8 0.0
01/12:00am 29.4 32.7 19.1 54 6.7 CALM 0 6 0 3 1012.5 1011.6 0.0
 
Date/Time
EST
Temp
°C
App
Temp
°C
Dew
Point
Rel
Hum
%
Delta-T
°C
Wind Press
QNH
hPa
Press
MSL
hPa
Rain
since 9 am
mm
Dir
 
Spd
km/h
Gust
km/h
Spd
kts
Gust
kts
31/11:30pm 29.6 32.6 18.4 51 7.2 CALM 0 0 0 0 1012.3 1011.4 0.0
31/11:00pm 30.2 32.1 18.6 49 7.5 NNW 6 7 3 4 1012.3 1011.4 0.0
31/10:30pm 30.2 33.1 18.3 49 7.7 CALM 0 7 0 4 1012.5 1011.6 0.0
31/10:00pm 30.4 33.1 17.8 46 8.1 CALM 0 0 0 0 1012.3 1011.4 0.0
31/09:30pm 30.8 33.4 17.5 45 8.5 CALM 0 0 0 0 1012.2 1011.3 0.0
31/09:00pm 31.7 34.2 17.2 42 9.3 CALM 0 0 0 0 1011.9 1011.0 0.0
31/08:30pm 32.5 33.8 17.2 40 9.8 NNE 6 9 3 5 1011.6 1010.8 0.0
31/08:00pm 32.9 33.7 16.3 37 10.5 NNE 7 9 4 5 1011.2 1010.4 0.0
31/07:30pm 33.6 33.9 16.0 34 11.1 NNE 9 13 5 7 1010.8 1010.0 0.0
31/07:00pm 34.3 33.9 16.2 34 11.5 NNE 13 19 7 10 1010.6 1009.8 0.0
31/06:30pm 35.7 35.0 15.4 29 12.8 NE 13 24 7 13 1010.2 1009.3 0.0
31/06:00pm 37.3 35.1 13.3 23 14.8 ENE 17 26 9 14 1009.8 1008.9 0.0
31/05:30pm 37.9 37.2 13.2 23 15.2 E 9 17 5 9 1009.7 1008.8 0.0
31/05:00pm 38.6 36.6 11.6 20 16.3 ESE 13 22 7 12 1009.8 1008.9 0.0
31/04:30pm 39.3 37.7 12.9 20 16.3 E 13 19 7 10 1009.8 1008.9 0.0
31/04:00pm 39.7 37.6 12.5 20 16.7 ENE 15 24 8 13 1009.8 1008.9 0.0
31/03:30pm 38.7 37.6 13.2 22 15.8 E 11 17 6 9 1010.0 1009.1 0.0
31/03:00pm 38.8 37.7 13.2 21 15.8 ENE 11 22 6 12 1010.2 1009.3 0.0
31/02:30pm 38.2 36.6 12.7 21 15.6 ENE 13 20 7 11 1010.7 1009.9 0.0
31/02:00pm 38.5 38.0 13.7 23 15.4 SSE 9 15 5 8 1011.1 1010.3 0.0
31/01:30pm 37.4 37.1 12.8 23 15.0 N 6 15 3 8 1011.6 1010.8 0.0
31/01:00pm 37.5 36.3 14.1 24 14.6 N 13 22 7 12 1012.3 1011.4 0.0
31/12:30pm 37.4 36.6 14.0 24 14.6 N 11 19 6 10 1012.8 1011.9 0.0
31/12:00pm 37.3 36.3 14.6 26 14.2 NE 13 22 7 12 1013.4 1012.5 0.0
31/11:30am 36.4 33.6 12.6 24 14.5 NE 19 28 10 15 1014.0 1013.1 0.0
31/11:00am 35.7 34.4 12.6 25 14.0 ESE 11 22 6 12 1014.3 1013.4 0.0
31/10:30am 35.9 34.5 13.4 26 13.8 SE 13 22 7 12 1014.4 1013.5 0.0
31/10:00am 35.3 33.7 12.9 26 13.6 ESE 13 20 7 11 1014.6 1013.7 0.0
31/09:30am 33.9 31.6 11.7 26 13.2 ESE 15 22 8 12 1014.8 1013.9 0.0
31/09:00am 34.1 33.1 12.4 26 13.0 SE 9 17 5 9 1014.7 1013.8 0.0
31/08:30am 32.4 32.0 13.1 31 11.6 S 7 11 4 6 1014.4 1013.5 0.0
31/08:00am 30.1 30.1 14.2 38 9.7 S 7 11 4 6 1014.1 1013.2 0.0
31/07:30am 25.3 27.0 17.2 61 5.1 S 4 9 2 5 1013.9 1013.0 0.0
31/07:00am 24.7 27.0 16.7 61 4.9 CALM 0 0 0 0 1013.5 1012.6 0.0
31/06:30am 24.1 26.3 16.6 63 4.6 CALM 0 0 0 0 1013.0 1012.1 0.0
31/06:00am 24.8 26.9 16.2 58 5.3 CALM 0 0 0 0 1012.7 1011.8 0.0
31/05:30am 25.2 27.2 16.9 60 5.2 SE 2 6 1 3 1012.5 1011.6 0.0
31/05:00am 25.3 26.4 16.7 59 5.3 E 6 9 3 5 1012.0 1011.1 0.0
31/04:30am 25.2 26.2 16.3 57 5.5 SW 6 9 3 5 1011.8 1010.9 0.0
31/04:00am 24.7 26.9 16.4 60 5.1 CALM 0 0 0 0 1011.6 1010.8 0.0
31/03:30am 25.1 27.2 16.3 58 5.4 CALM 0 0 0 0 1011.8 1010.9 0.0
31/03:00am 25.5 27.0 15.8 55 5.9 SSW 2 7 1 4 1011.9 1011.0 0.0
31/02:30am 25.7 27.2 15.7 54 6.1 S 2 6 1 3 1012.1 1011.2 0.0
31/02:00am 26.0 26.9 16.0 54 6.2 SSW 6 6 3 3 1012.4 1011.5 0.0
31/01:30am 26.2 27.0 15.9 53 6.3 WNW 6 7 3 4 1012.8 1011.9 0.0
31/01:00am 26.7 28.5 15.4 50 6.9 CALM 0 0 0 0 1013.1 1012.2 0.0
31/12:30am 27.2 27.9 15.6 49 7.1 NNW 6 13 3 7 1013.5 1012.6 0.0
31/12:00am 27.4 28.1 15.7 48 7.2 SW 6 7 3 4 1013.6 1012.7 0.0
 
Date/Time
EST
Temp
°C
App
Temp
°C
Dew
Point
Rel
Hum
%
Delta-T
°C
Wind Press
QNH
hPa
Press
MSL
hPa
Rain
since 9 am
mm
Dir
 
Spd
km/h
Gust
km/h
Spd
kts
Gust
kts
30/11:30pm 27.7 28.4 16.0 49 7.2 SSW 7 7 4 4 1013.6 1012.7 0.0
30/11:00pm 27.9 28.6 16.2 49 7.3 SSW 7 9 4 5 1013.9 1013.0 0.0
30/10:30pm 28.4 29.3 16.0 47 7.7 SSW 6 7 3 4 1014.1 1013.2 0.0
30/10:00pm 28.7 29.4 15.6 45 8.1 S 6 6 3 3 1014.2 1013.3 0.0
30/09:30pm 29.2 30.9 15.3 42 8.6 CALM 0 0 0 0 1014.3 1013.4 0.0
30/09:00pm 29.8 30.3 15.1 40 9.0 SE 6 6 3 3 1014.2 1013.3 0.0
30/08:30pm 30.8 32.1 14.0 36 10.2 CALM 0 2 0 1 1014.0 1013.1 0.0
30/08:00pm 32.4 32.6 13.1 31 11.6 E 4 7 2 4 1013.6 1012.7 0.0
30/07:30pm 33.8 33.5 13.3 29 12.5 E 7 9 4 5 1013.3 1012.4 0.0
30/07:00pm 34.8 34.2 13.6 28 13.0 E 9 13 5 7 1012.9 1012.0 0.0
30/06:30pm 35.8 34.0 13.3 26 13.8 E 15 20 8 11 1012.5 1011.6 0.0
30/06:00pm 36.9 35.6 13.6 24 14.4 E 13 22 7 12 1012.4 1011.5 0.0
30/05:30pm 37.6 35.9 13.6 24 14.9 E 15 26 8 14 1012.3 1011.4 0.0
30/05:00pm 37.4 36.4 14.6 25 14.3 E 13 20 7 11 1012.2 1011.3 0.0
30/04:30pm 38.2 38.5 15.9 26 14.3 E 9 19 5 10 1012.0 1011.1 0.0
30/04:00pm 38.0 36.9 15.2 26 14.5 ENE 15 26 8 14 1012.0 1011.1 0.0
30/03:30pm 37.2 35.8 15.6 27 13.7 ENE 17 26 9 14 1012.2 1011.3 0.0
30/03:00pm 37.7 37.0 15.5 27 14.1 E 13 20 7 11 1012.4 1011.5 0.0
30/02:30pm 38.0 36.9 15.2 26 14.4 NE 15 26 8 14 1012.6 1011.7 0.0
30/02:00pm 38.2 37.9 16.5 28 14.0 NE 13 24 7 13 1013.0 1012.1 0.0
30/01:30pm 37.3 37.5 16.8 29 13.2 NE 11 20 6 11 1013.6 1012.7 0.0

Other Formats:

Comma delimited format used in spreadsheet applications
http://www.bom.gov.au/fwo/IDQ60801/IDQ60801.94261.axf

JavaScript Object Notation format (JSON) in row-major order
http://www.bom.gov.au/fwo/IDQ60801/IDQ60801.94261.json